Buffalo, Kentucky
Current Conditions -  °F | °C
As of 3:58 AM on Saturday 25 Oct 2014 (Local Time) from KFTK Reporting Station
Clear Clear  
Wind Chill: 47°   Ceiling: Unl
Heat Index: 47°   Visibility: 9mi
Dew Point: 45°   Wind: 0mph
Humidity: 92%   Direction: NA
Pressure: 30.04"   Gusts: NA
Location:  37.51°N, 85.7°W
Report Text: KFTK 250758Z AUTO 00000KT 9SM R18/5500FT CLR 08/07 A3004 RMK AO2 SLP175 T00840072
Loading
Personal Weather Stations






























Interactive Weather Map
Tropical Storm Tracking
New forecast layout! Learn more

10-Day Weather Forecast

Advertisements
Track Severe Weather on mobile